sensor_id;sensor_type;location;lat;lon;timestamp;P1;durP1;ratioP1;P2;durP2;ratioP2
73421;SDS011;61637;47.760;-122.022;2024-02-28T00:00:01;14.7;;;12.1;;
73421;SDS011;61637;47.760;-122.022;2024-02-28T00:02:01;17.9;;;12.7;;
73421;SDS011;61637;47.760;-122.022;2024-02-28T00:04:01;15.2;;;12.9;;
73421;SDS011;61637;47.760;-122.022;2024-02-28T00:06:00;13.9;;;11.8;;
73421;SDS011;61637;47.760;-122.022;2024-02-28T00:08:00;14.4;;;10.7;;
73421;SDS011;61637;47.760;-122.022;2024-02-28T00:10:02;14.1;;;11.2;;
73421;SDS011;61637;47.760;-122.022;2024-02-28T00:12:01;14.4;;;11.7;;
73421;SDS011;61637;47.760;-122.022;2024-02-28T00:14:00;13.6;;;11.6;;
73421;SDS011;61637;47.760;-122.022;2024-02-28T00:16:02;13.9;;;11.7;;
73421;SDS011;61637;47.760;-122.022;2024-02-28T00:18:01;15.4;;;12.1;;
73421;SDS011;61637;47.760;-122.022;2024-02-28T00:20:00;13.3;;;11.9;;
73421;SDS011;61637;47.760;-122.022;2024-02-28T00:22:01;11.9;;;10.6;;
73421;SDS011;61637;47.760;-122.022;2024-02-28T00:24:00;12.3;;;11.0;;
73421;SDS011;61637;47.760;-122.022;2024-02-28T00:26:00;12.2;;;11.0;;
73421;SDS011;61637;47.760;-122.022;2024-02-28T00:28:00;14.2;;;12.7;;
73421;SDS011;61637;47.760;-122.022;2024-02-28T00:30:01;15.0;;;12.8;;
73421;SDS011;61637;47.760;-122.022;2024-02-28T00:32:00;14.0;;;12.6;;
73421;SDS011;61637;47.760;-122.022;2024-02-28T00:34:01;15.1;;;13.2;;
73421;SDS011;61637;47.760;-122.022;2024-02-28T00:36:00;14.0;;;12.6;;
73421;SDS011;61637;47.760;-122.022;2024-02-28T00:38:01;14.3;;;12.8;;
73421;SDS011;61637;47.760;-122.022;2024-02-28T00:40:01;13.0;;;11.8;;
73421;SDS011;61637;47.760;-122.022;2024-02-28T00:42:01;13.5;;;12.1;;
73421;SDS011;61637;47.760;-122.022;2024-02-28T00:44:02;13.5;;;12.2;;
73421;SDS011;61637;47.760;-122.022;2024-02-28T00:46:01;12.3;;;11.0;;
73421;SDS011;61637;47.760;-122.022;2024-02-28T00:48:01;12.7;;;11.4;;
73421;SDS011;61637;47.760;-122.022;2024-02-28T00:50:01;13.1;;;11.8;;
73421;SDS011;61637;47.760;-122.022;2024-02-28T00:52:01;13.2;;;12.0;;
73421;SDS011;61637;47.760;-122.022;2024-02-28T00:54:00;12.8;;;11.6;;
73421;SDS011;61637;47.760;-122.022;2024-02-28T00:56:01;13.3;;;11.9;;
73421;SDS011;61637;47.760;-122.022;2024-02-28T00:58:01;13.4;;;12.1;;
73421;SDS011;61637;47.760;-122.022;2024-02-28T01:00:00;12.8;;;11.6;;
73421;SDS011;61637;47.760;-122.022;2024-02-28T01:02:01;12.9;;;11.7;;
73421;SDS011;61637;47.760;-122.022;2024-02-28T01:04:00;12.2;;;11.1;;
73421;SDS011;61637;47.760;-122.022;2024-02-28T01:06:01;13.0;;;11.7;;
73421;SDS011;61637;47.760;-122.022;2024-02-28T01:08:01;11.7;;;10.2;;
73421;SDS011;61637;47.760;-122.022;2024-02-28T01:10:01;10.9;;;9.5;;
73421;SDS011;61637;47.760;-122.022;2024-02-28T01:12:00;12.0;;;10.8;;
73421;SDS011;61637;47.760;-122.022;2024-02-28T01:14:01;11.4;;;10.3;;
73421;SDS011;61637;47.760;-122.022;2024-02-28T01:16:01;11.3;;;10.2;;
73421;SDS011;61637;47.760;-122.022;2024-02-28T01:18:00;12.5;;;11.4;;
73421;SDS011;61637;47.760;-122.022;2024-02-28T01:20:01;12.5;;;11.4;;
73421;SDS011;61637;47.760;-122.022;2024-02-28T01:22:01;12.6;;;11.0;;
73421;SDS011;61637;47.760;-122.022;2024-02-28T01:24:00;12.2;;;11.0;;
73421;SDS011;61637;47.760;-122.022;2024-02-28T01:26:01;11.4;;;10.0;;
73421;SDS011;61637;47.760;-122.022;2024-02-28T01:28:00;13.1;;;11.9;;
73421;SDS011;61637;47.760;-122.022;2024-02-28T01:30:01;12.5;;;11.3;;
73421;SDS011;61637;47.760;-122.022;2024-02-28T01:32:01;11.4;;;10.1;;
73421;SDS011;61637;47.760;-122.022;2024-02-28T01:34:01;11.4;;;10.1;;
73421;SDS011;61637;47.760;-122.022;2024-02-28T01:36:01;11.9;;;10.6;;
73421;SDS011;61637;47.760;-122.022;2024-02-28T01:38:00;12.7;;;11.5;;
73421;SDS011;61637;47.760;-122.022;2024-02-28T01:40:01;12.6;;;11.3;;
73421;SDS011;61637;47.760;-122.022;2024-02-28T01:42:00;11.2;;;10.1;;
73421;SDS011;61637;47.760;-122.022;2024-02-28T01:44:01;10.9;;;9.8;;
73421;SDS011;61637;47.760;-122.022;2024-02-28T01:46:05;11.8;;;10.7;;
73421;SDS011;61637;47.760;-122.022;2024-02-28T01:48:01;11.6;;;10.4;;
73421;SDS011;61637;47.760;-122.022;2024-02-28T01:50:00;11.9;;;10.8;;
73421;SDS011;61637;47.760;-122.022;2024-02-28T01:52:01;11.8;;;10.6;;
73421;SDS011;61637;47.760;-122.022;2024-02-28T01:54:01;11.3;;;10.2;;
73421;SDS011;61637;47.760;-122.022;2024-02-28T01:56:02;12.5;;;11.4;;
73421;SDS011;61637;47.760;-122.022;2024-02-28T01:58:01;12.4;;;11.2;;
73421;SDS011;61637;47.760;-122.022;2024-02-28T02:00:01;13.3;;;12.0;;
73421;SDS011;61637;47.760;-122.022;2024-02-28T02:02:01;13.1;;;11.8;;
73421;SDS011;61637;47.760;-122.022;2024-02-28T02:04:01;12.7;;;11.5;;
73421;SDS011;61637;47.760;-122.022;2024-02-28T02:06:02;12.3;;;11.1;;
73421;SDS011;61637;47.760;-122.022;2024-02-28T02:08:01;14.0;;;12.4;;
73421;SDS011;61637;47.760;-122.022;2024-02-28T02:10:01;11.8;;;10.7;;
73421;SDS011;61637;47.760;-122.022;2024-02-28T02:12:01;13.3;;;12.0;;
73421;SDS011;61637;47.760;-122.022;2024-02-28T02:14:01;11.1;;;10.1;;
73421;SDS011;61637;47.760;-122.022;2024-02-28T02:16:01;13.6;;;11.2;;
73421;SDS011;61637;47.760;-122.022;2024-02-28T02:18:00;14.1;;;12.6;;
73421;SDS011;61637;47.760;-122.022;2024-02-28T02:20:01;13.2;;;11.9;;
73421;SDS011;61637;47.760;-122.022;2024-02-28T02:22:03;13.0;;;11.8;;
73421;SDS011;61637;47.760;-122.022;2024-02-28T02:24:01;13.1;;;11.7;;
73421;SDS011;61637;47.760;-122.022;2024-02-28T02:26:01;13.1;;;11.8;;
73421;SDS011;61637;47.760;-122.022;2024-02-28T02:28:00;13.0;;;11.8;;
73421;SDS011;61637;47.760;-122.022;2024-02-28T02:30:01;12.8;;;11.6;;
73421;SDS011;61637;47.760;-122.022;2024-02-28T02:32:01;12.9;;;11.6;;
73421;SDS011;61637;47.760;-122.022;2024-02-28T02:34:01;13.2;;;11.9;;
73421;SDS011;61637;47.760;-122.022;2024-02-28T02:36:01;12.8;;;11.7;;
73421;SDS011;61637;47.760;-122.022;2024-02-28T02:38:01;12.7;;;11.6;;
73421;SDS011;61637;47.760;-122.022;2024-02-28T02:40:01;13.0;;;11.0;;
73421;SDS011;61637;47.760;-122.022;2024-02-28T02:42:00;12.3;;;11.1;;
73421;SDS011;61637;47.760;-122.022;2024-02-28T02:44:01;12.3;;;11.2;;
73421;SDS011;61637;47.760;-122.022;2024-02-28T02:46:00;12.5;;;11.4;;
73421;SDS011;61637;47.760;-122.022;2024-02-28T02:48:01;12.5;;;11.3;;
73421;SDS011;61637;47.760;-122.022;2024-02-28T02:50:01;11.7;;;10.6;;
73421;SDS011;61637;47.760;-122.022;2024-02-28T02:52:00;11.3;;;10.3;;
73421;SDS011;61637;47.760;-122.022;2024-02-28T02:54:00;10.4;;;8.6;;
73421;SDS011;61637;47.760;-122.022;2024-02-28T02:56:03;11.2;;;10.1;;
73421;SDS011;61637;47.760;-122.022;2024-02-28T02:58:01;11.9;;;10.7;;
73421;SDS011;61637;47.760;-122.022;2024-02-28T03:00:01;11.8;;;10.7;;
73421;SDS011;61637;47.760;-122.022;2024-02-28T03:02:00;11.7;;;10.6;;
73421;SDS011;61637;47.760;-122.022;2024-02-28T03:04:00;13.1;;;11.8;;
73421;SDS011;61637;47.760;-122.022;2024-02-28T03:06:00;12.5;;;11.4;;
73421;SDS011;61637;47.760;-122.022;2024-02-28T03:08:01;12.3;;;11.1;;
73421;SDS011;61637;47.760;-122.022;2024-02-28T03:10:00;10.5;;;9.5;;
73421;SDS011;61637;47.760;-122.022;2024-02-28T03:12:01;11.0;;;9.9;;
73421;SDS011;61637;47.760;-122.022;2024-02-28T03:14:00;10.4;;;9.4;;
73421;SDS011;61637;47.760;-122.022;2024-02-28T03:16:03;13.0;;;11.9;;
73421;SDS011;61637;47.760;-122.022;2024-02-28T03:18:00;13.0;;;11.9;;
73421;SDS011;61637;47.760;-122.022;2024-02-28T03:20:00;13.7;;;12.4;;
73421;SDS011;61637;47.760;-122.022;2024-02-28T03:22:00;13.0;;;11.8;;
73421;SDS011;61637;47.760;-122.022;2024-02-28T03:24:01;11.9;;;10.8;;
73421;SDS011;61637;47.760;-122.022;2024-02-28T03:26:01;10.9;;;9.9;;
73421;SDS011;61637;47.760;-122.022;2024-02-28T03:28:00;11.1;;;10.1;;
73421;SDS011;61637;47.760;-122.022;2024-02-28T03:30:00;11.2;;;10.1;;
73421;SDS011;61637;47.760;-122.022;2024-02-28T03:32:00;11.1;;;10.0;;
73421;SDS011;61637;47.760;-122.022;2024-02-28T03:34:01;10.9;;;9.9;;
73421;SDS011;61637;47.760;-122.022;2024-02-28T03:36:01;11.3;;;10.2;;
73421;SDS011;61637;47.760;-122.022;2024-02-28T03:38:01;11.8;;;10.8;;
73421;SDS011;61637;47.760;-122.022;2024-02-28T03:40:00;11.2;;;10.2;;
73421;SDS011;61637;47.760;-122.022;2024-02-28T03:42:00;10.8;;;9.7;;
73421;SDS011;61637;47.760;-122.022;2024-02-28T03:44:00;12.1;;;11.1;;
73421;SDS011;61637;47.760;-122.022;2024-02-28T03:46:01;11.0;;;9.4;;
73421;SDS011;61637;47.760;-122.022;2024-02-28T03:48:01;11.2;;;10.2;;
73421;SDS011;61637;47.760;-122.022;2024-02-28T03:50:00;11.8;;;10.7;;
73421;SDS011;61637;47.760;-122.022;2024-02-28T03:52:00;10.2;;;9.1;;
73421;SDS011;61637;47.760;-122.022;2024-02-28T03:54:01;10.5;;;9.5;;
73421;SDS011;61637;47.760;-122.022;2024-02-28T03:56:01;10.6;;;9.0;;
73421;SDS011;61637;47.760;-122.022;2024-02-28T03:58:01;11.2;;;10.1;;
73421;SDS011;61637;47.760;-122.022;2024-02-28T04:00:01;10.6;;;9.6;;
73421;SDS011;61637;47.760;-122.022;2024-02-28T04:02:01;11.3;;;10.2;;
73421;SDS011;61637;47.760;-122.022;2024-02-28T04:04:00;11.6;;;10.5;;
73421;SDS011;61637;47.760;-122.022;2024-02-28T04:06:00;11.7;;;10.6;;
73421;SDS011;61637;47.760;-122.022;2024-02-28T04:08:01;12.9;;;11.7;;
73421;SDS011;61637;47.760;-122.022;2024-02-28T04:10:00;13.0;;;11.8;;
73421;SDS011;61637;47.760;-122.022;2024-02-28T04:12:02;12.6;;;11.5;;
73421;SDS011;61637;47.760;-122.022;2024-02-28T04:14:01;12.1;;;11.0;;
73421;SDS011;61637;47.760;-122.022;2024-02-28T04:16:02;12.2;;;11.0;;
73421;SDS011;61637;47.760;-122.022;2024-02-28T04:18:00;12.0;;;11.0;;
73421;SDS011;61637;47.760;-122.022;2024-02-28T04:20:00;11.1;;;10.1;;
73421;SDS011;61637;47.760;-122.022;2024-02-28T04:22:00;11.0;;;10.0;;
73421;SDS011;61637;47.760;-122.022;2024-02-28T04:24:01;11.8;;;10.6;;
73421;SDS011;61637;47.760;-122.022;2024-02-28T04:26:00;11.6;;;10.5;;
73421;SDS011;61637;47.760;-122.022;2024-02-28T04:28:01;9.9;;;9.0;;
73421;SDS011;61637;47.760;-122.022;2024-02-28T04:30:01;8.3;;;7.5;;
73421;SDS011;61637;47.760;-122.022;2024-02-28T04:32:01;9.2;;;8.3;;
73421;SDS011;61637;47.760;-122.022;2024-02-28T04:34:00;9.6;;;8.6;;
73421;SDS011;61637;47.760;-122.022;2024-02-28T04:36:01;9.4;;;8.4;;
73421;SDS011;61637;47.760;-122.022;2024-02-28T04:38:01;9.1;;;8.2;;
73421;SDS011;61637;47.760;-122.022;2024-02-28T04:40:00;8.5;;;7.7;;
73421;SDS011;61637;47.760;-122.022;2024-02-28T04:42:00;10.0;;;9.1;;
73421;SDS011;61637;47.760;-122.022;2024-02-28T04:44:01;8.0;;;7.2;;
73421;SDS011;61637;47.760;-122.022;2024-02-28T04:46:01;9.5;;;8.6;;
73421;SDS011;61637;47.760;-122.022;2024-02-28T04:48:01;9.7;;;8.8;;
73421;SDS011;61637;47.760;-122.022;2024-02-28T04:50:00;9.7;;;8.7;;
73421;SDS011;61637;47.760;-122.022;2024-02-28T04:52:01;12.0;;;10.9;;
73421;SDS011;61637;47.760;-122.022;2024-02-28T04:54:01;10.4;;;9.5;;
73421;SDS011;61637;47.760;-122.022;2024-02-28T04:56:01;10.9;;;9.9;;
73421;SDS011;61637;47.760;-122.022;2024-02-28T04:58:00;10.8;;;9.8;;
73421;SDS011;61637;47.760;-122.022;2024-02-28T05:00:01;9.3;;;8.5;;
73421;SDS011;61637;47.760;-122.022;2024-02-28T05:02:00;7.4;;;6.3;;
73421;SDS011;61637;47.760;-122.022;2024-02-28T05:04:01;9.8;;;8.9;;
73421;SDS011;61637;47.760;-122.022;2024-02-28T05:06:01;8.7;;;7.9;;
73421;SDS011;61637;47.760;-122.022;2024-02-28T05:08:00;7.4;;;5.8;;
73421;SDS011;61637;47.760;-122.022;2024-02-28T05:10:00;7.5;;;6.8;;
73421;SDS011;61637;47.760;-122.022;2024-02-28T05:12:01;8.5;;;6.4;;
73421;SDS011;61637;47.760;-122.022;2024-02-28T05:14:00;7.6;;;5.8;;
73421;SDS011;61637;47.760;-122.022;2024-02-28T05:16:00;6.2;;;5.1;;
73421;SDS011;61637;47.760;-122.022;2024-02-28T05:18:00;4.6;;;3.0;;
73421;SDS011;61637;47.760;-122.022;2024-02-28T05:20:01;7.2;;;6.5;;
73421;SDS011;61637;47.760;-122.022;2024-02-28T05:22:00;7.7;;;5.7;;
73421;SDS011;61637;47.760;-122.022;2024-02-28T05:24:00;7.1;;;4.1;;
73421;SDS011;61637;47.760;-122.022;2024-02-28T05:26:01;4.9;;;3.3;;
73421;SDS011;61637;47.760;-122.022;2024-02-28T05:28:00;5.8;;;4.4;;
73421;SDS011;61637;47.760;-122.022;2024-02-28T05:30:02;5.5;;;4.4;;
73421;SDS011;61637;47.760;-122.022;2024-02-28T05:32:01;5.1;;;3.6;;
73421;SDS011;61637;47.760;-122.022;2024-02-28T05:34:01;4.8;;;2.4;;
73421;SDS011;61637;47.760;-122.022;2024-02-28T05:36:00;4.7;;;2.4;;
73421;SDS011;61637;47.760;-122.022;2024-02-28T05:38:00;3.9;;;1.9;;
73421;SDS011;61637;47.760;-122.022;2024-02-28T05:40:00;4.5;;;2.2;;
73421;SDS011;61637;47.760;-122.022;2024-02-28T05:42:01;3.9;;;1.5;;
73421;SDS011;61637;47.760;-122.022;2024-02-28T05:44:01;3.2;;;1.6;;
73421;SDS011;61637;47.760;-122.022;2024-02-28T05:46:01;2.7;;;1.2;;
73421;SDS011;61637;47.760;-122.022;2024-02-28T05:48:01;2.7;;;1.2;;
73421;SDS011;61637;47.760;-122.022;2024-02-28T05:50:00;2.1;;;0.9;;
73421;SDS011;61637;47.760;-122.022;2024-02-28T05:52:00;3.7;;;1.5;;
73421;SDS011;61637;47.760;-122.022;2024-02-28T05:54:01;3.7;;;1.7;;
73421;SDS011;61637;47.760;-122.022;2024-02-28T05:56:01;3.6;;;1.6;;
73421;SDS011;61637;47.760;-122.022;2024-02-28T05:58:01;4.7;;;2.2;;
73421;SDS011;61637;47.760;-122.022;2024-02-28T06:00:00;5.1;;;2.3;;
73421;SDS011;61637;47.760;-122.022;2024-02-28T06:02:00;4.0;;;2.1;;
73421;SDS011;61637;47.760;-122.022;2024-02-28T06:04:02;4.5;;;2.2;;
73421;SDS011;61637;47.760;-122.022;2024-02-28T06:06:01;4.1;;;2.5;;
73421;SDS011;61637;47.760;-122.022;2024-02-28T06:08:01;4.3;;;2.4;;
73421;SDS011;61637;47.760;-122.022;2024-02-28T06:10:00;2.8;;;1.0;;
73421;SDS011;61637;47.760;-122.022;2024-02-28T06:12:01;3.1;;;1.2;;
73421;SDS011;61637;47.760;-122.022;2024-02-28T06:14:00;4.6;;;1.9;;
73421;SDS011;61637;47.760;-122.022;2024-02-28T06:16:01;6.6;;;1.7;;
73421;SDS011;61637;47.760;-122.022;2024-02-28T06:18:01;4.3;;;2.0;;
73421;SDS011;61637;47.760;-122.022;2024-02-28T06:20:01;3.5;;;1.4;;
73421;SDS011;61637;47.760;-122.022;2024-02-28T06:22:00;4.1;;;1.4;;
73421;SDS011;61637;47.760;-122.022;2024-02-28T06:24:01;3.2;;;1.5;;
73421;SDS011;61637;47.760;-122.022;2024-02-28T06:26:00;3.5;;;1.5;;
73421;SDS011;61637;47.760;-122.022;2024-02-28T06:28:00;3.4;;;1.5;;
73421;SDS011;61637;47.760;-122.022;2024-02-28T06:30:01;3.3;;;1.0;;
73421;SDS011;61637;47.760;-122.022;2024-02-28T06:32:00;3.6;;;1.0;;
73421;SDS011;61637;47.760;-122.022;2024-02-28T06:34:00;3.3;;;0.9;;
73421;SDS011;61637;47.760;-122.022;2024-02-28T06:36:00;2.9;;;0.8;;
73421;SDS011;61637;47.760;-122.022;2024-02-28T06:38:01;2.2;;;0.9;;
73421;SDS011;61637;47.760;-122.022;2024-02-28T06:40:02;2.9;;;0.9;;
73421;SDS011;61637;47.760;-122.022;2024-02-28T06:42:01;1.9;;;0.7;;
73421;SDS011;61637;47.760;-122.022;2024-02-28T06:44:02;2.1;;;0.8;;
73421;SDS011;61637;47.760;-122.022;2024-02-28T06:46:01;1.2;;;0.6;;
73421;SDS011;61637;47.760;-122.022;2024-02-28T06:48:00;1.8;;;0.6;;
73421;SDS011;61637;47.760;-122.022;2024-02-28T06:50:01;3.1;;;0.6;;
73421;SDS011;61637;47.760;-122.022;2024-02-28T06:52:01;1.7;;;0.7;;
73421;SDS011;61637;47.760;-122.022;2024-02-28T06:54:01;1.7;;;0.6;;
73421;SDS011;61637;47.760;-122.022;2024-02-28T06:56:01;1.5;;;0.6;;
73421;SDS011;61637;47.760;-122.022;2024-02-28T06:58:00;1.6;;;0.6;;
73421;SDS011;61637;47.760;-122.022;2024-02-28T07:00:01;1.8;;;0.6;;
73421;SDS011;61637;47.760;-122.022;2024-02-28T07:02:00;1.9;;;0.6;;
73421;SDS011;61637;47.760;-122.022;2024-02-28T07:04:01;1.2;;;0.5;;
73421;SDS011;61637;47.760;-122.022;2024-02-28T07:06:01;3.0;;;0.6;;
73421;SDS011;61637;47.760;-122.022;2024-02-28T07:08:01;1.7;;;0.6;;
73421;SDS011;61637;47.760;-122.022;2024-02-28T07:10:03;1.6;;;0.6;;
73421;SDS011;61637;47.760;-122.022;2024-02-28T07:12:00;2.8;;;0.5;;
73421;SDS011;61637;47.760;-122.022;2024-02-28T07:14:01;1.6;;;0.6;;
73421;SDS011;61637;47.760;-122.022;2024-02-28T07:16:00;2.7;;;0.7;;
73421;SDS011;61637;47.760;-122.022;2024-02-28T07:18:01;3.0;;;0.7;;
73421;SDS011;61637;47.760;-122.022;2024-02-28T07:20:00;2.1;;;0.6;;
73421;SDS011;61637;47.760;-122.022;2024-02-28T07:22:00;1.9;;;0.7;;
73421;SDS011;61637;47.760;-122.022;2024-02-28T07:24:00;2.6;;;0.6;;
73421;SDS011;61637;47.760;-122.022;2024-02-28T07:26:00;1.8;;;0.5;;
73421;SDS011;61637;47.760;-122.022;2024-02-28T07:28:01;1.4;;;0.5;;
73421;SDS011;61637;47.760;-122.022;2024-02-28T07:30:02;2.3;;;0.6;;
73421;SDS011;61637;47.760;-122.022;2024-02-28T07:32:00;2.4;;;0.5;;
73421;SDS011;61637;47.760;-122.022;2024-02-28T07:34:01;1.4;;;0.5;;
73421;SDS011;61637;47.760;-122.022;2024-02-28T07:36:01;2.0;;;0.6;;
73421;SDS011;61637;47.760;-122.022;2024-02-28T07:38:00;2.3;;;0.5;;
73421;SDS011;61637;47.760;-122.022;2024-02-28T07:40:00;1.7;;;0.5;;
73421;SDS011;61637;47.760;-122.022;2024-02-28T07:42:01;6.0;;;0.5;;
73421;SDS011;61637;47.760;-122.022;2024-02-28T07:44:01;1.1;;;0.5;;
73421;SDS011;61637;47.760;-122.022;2024-02-28T07:46:01;2.4;;;0.4;;
73421;SDS011;61637;47.760;-122.022;2024-02-28T07:48:01;1.6;;;0.5;;
73421;SDS011;61637;47.760;-122.022;2024-02-28T07:50:01;1.3;;;0.4;;
73421;SDS011;61637;47.760;-122.022;2024-02-28T07:52:01;1.6;;;0.4;;
73421;SDS011;61637;47.760;-122.022;2024-02-28T07:54:01;1.2;;;0.5;;
73421;SDS011;61637;47.760;-122.022;2024-02-28T07:56:01;1.1;;;0.5;;
73421;SDS011;61637;47.760;-122.022;2024-02-28T07:58:01;3.3;;;0.5;;
73421;SDS011;61637;47.760;-122.022;2024-02-28T08:00:01;1.9;;;0.5;;
73421;SDS011;61637;47.760;-122.022;2024-02-28T08:02:00;1.2;;;0.5;;
73421;SDS011;61637;47.760;-122.022;2024-02-28T08:04:01;1.4;;;0.5;;
73421;SDS011;61637;47.760;-122.022;2024-02-28T08:06:01;1.0;;;0.4;;
73421;SDS011;61637;47.760;-122.022;2024-02-28T08:08:01;2.9;;;0.5;;
73421;SDS011;61637;47.760;-122.022;2024-02-28T08:10:01;1.0;;;0.4;;
73421;SDS011;61637;47.760;-122.022;2024-02-28T08:12:00;1.2;;;0.5;;
73421;SDS011;61637;47.760;-122.022;2024-02-28T08:14:00;3.6;;;0.5;;
73421;SDS011;61637;47.760;-122.022;2024-02-28T08:16:01;1.2;;;0.4;;
73421;SDS011;61637;47.760;-122.022;2024-02-28T08:18:00;1.1;;;0.4;;
73421;SDS011;61637;47.760;-122.022;2024-02-28T08:20:00;1.3;;;0.4;;
73421;SDS011;61637;47.760;-122.022;2024-02-28T08:22:01;1.1;;;0.4;;
73421;SDS011;61637;47.760;-122.022;2024-02-28T08:24:01;1.7;;;0.4;;
73421;SDS011;61637;47.760;-122.022;2024-02-28T08:26:01;1.0;;;0.4;;
73421;SDS011;61637;47.760;-122.022;2024-02-28T08:28:01;1.2;;;0.4;;
73421;SDS011;61637;47.760;-122.022;2024-02-28T08:30:00;0.8;;;0.4;;
73421;SDS011;61637;47.760;-122.022;2024-02-28T08:32:01;1.6;;;0.4;;
73421;SDS011;61637;47.760;-122.022;2024-02-28T08:34:01;1.6;;;0.4;;
73421;SDS011;61637;47.760;-122.022;2024-02-28T08:36:00;1.0;;;0.4;;
73421;SDS011;61637;47.760;-122.022;2024-02-28T08:38:00;1.7;;;0.5;;
73421;SDS011;61637;47.760;-122.022;2024-02-28T08:40:01;1.8;;;0.4;;
73421;SDS011;61637;47.760;-122.022;2024-02-28T08:42:01;1.5;;;0.4;;
73421;SDS011;61637;47.760;-122.022;2024-02-28T08:44:01;1.8;;;0.5;;
73421;SDS011;61637;47.760;-122.022;2024-02-28T08:46:01;1.6;;;0.5;;
73421;SDS011;61637;47.760;-122.022;2024-02-28T08:48:01;1.4;;;0.5;;
73421;SDS011;61637;47.760;-122.022;2024-02-28T08:50:00;1.3;;;0.4;;
73421;SDS011;61637;47.760;-122.022;2024-02-28T08:52:00;1.5;;;0.5;;
73421;SDS011;61637;47.760;-122.022;2024-02-28T08:54:00;1.2;;;0.4;;
73421;SDS011;61637;47.760;-122.022;2024-02-28T08:56:01;1.7;;;0.5;;
73421;SDS011;61637;47.760;-122.022;2024-02-28T08:58:01;1.2;;;0.5;;
73421;SDS011;61637;47.760;-122.022;2024-02-28T09:00:00;1.7;;;0.5;;
73421;SDS011;61637;47.760;-122.022;2024-02-28T09:02:01;1.0;;;0.4;;
73421;SDS011;61637;47.760;-122.022;2024-02-28T09:04:01;1.1;;;0.4;;
73421;SDS011;61637;47.760;-122.022;2024-02-28T09:06:00;1.1;;;0.4;;
73421;SDS011;61637;47.760;-122.022;2024-02-28T09:08:00;1.2;;;0.5;;
73421;SDS011;61637;47.760;-122.022;2024-02-28T09:10:01;1.9;;;0.4;;
73421;SDS011;61637;47.760;-122.022;2024-02-28T09:12:00;1.0;;;0.4;;
73421;SDS011;61637;47.760;-122.022;2024-02-28T09:14:00;1.1;;;0.4;;
73421;SDS011;61637;47.760;-122.022;2024-02-28T09:16:01;1.4;;;0.5;;
73421;SDS011;61637;47.760;-122.022;2024-02-28T09:18:00;1.5;;;0.5;;
73421;SDS011;61637;47.760;-122.022;2024-02-28T09:20:01;1.7;;;0.4;;
73421;SDS011;61637;47.760;-122.022;2024-02-28T09:22:01;1.7;;;0.4;;
73421;SDS011;61637;47.760;-122.022;2024-02-28T09:24:00;1.1;;;0.4;;
73421;SDS011;61637;47.760;-122.022;2024-02-28T09:26:03;1.3;;;0.4;;
73421;SDS011;61637;47.760;-122.022;2024-02-28T09:28:01;2.7;;;0.5;;
73421;SDS011;61637;47.760;-122.022;2024-02-28T09:30:00;2.1;;;0.4;;
73421;SDS011;61637;47.760;-122.022;2024-02-28T09:32:01;1.1;;;0.4;;
73421;SDS011;61637;47.760;-122.022;2024-02-28T09:34:03;1.3;;;0.4;;
73421;SDS011;61637;47.760;-122.022;2024-02-28T09:36:02;1.3;;;0.4;;
73421;SDS011;61637;47.760;-122.022;2024-02-28T09:38:00;1.1;;;0.4;;
73421;SDS011;61637;47.760;-122.022;2024-02-28T09:40:00;1.0;;;0.4;;
73421;SDS011;61637;47.760;-122.022;2024-02-28T09:42:01;0.8;;;0.4;;
73421;SDS011;61637;47.760;-122.022;2024-02-28T09:44:03;1.5;;;0.4;;
73421;SDS011;61637;47.760;-122.022;2024-02-28T09:46:04;1.6;;;0.4;;
73421;SDS011;61637;47.760;-122.022;2024-02-28T09:48:00;1.2;;;0.4;;
73421;SDS011;61637;47.760;-122.022;2024-02-28T09:50:02;2.0;;;0.4;;
73421;SDS011;61637;47.760;-122.022;2024-02-28T09:52:02;2.0;;;0.4;;
73421;SDS011;61637;47.760;-122.022;2024-02-28T09:54:01;1.7;;;0.4;;
73421;SDS011;61637;47.760;-122.022;2024-02-28T09:56:00;1.1;;;0.4;;
73421;SDS011;61637;47.760;-122.022;2024-02-28T09:58:01;1.1;;;0.4;;
73421;SDS011;61637;47.760;-122.022;2024-02-28T10:00:01;2.4;;;0.5;;
73421;SDS011;61637;47.760;-122.022;2024-02-28T10:02:01;0.8;;;0.4;;
73421;SDS011;61637;47.760;-122.022;2024-02-28T10:04:02;1.1;;;0.4;;
73421;SDS011;61637;47.760;-122.022;2024-02-28T10:06:01;1.1;;;0.4;;
73421;SDS011;61637;47.760;-122.022;2024-02-28T10:08:01;1.0;;;0.4;;
73421;SDS011;61637;47.760;-122.022;2024-02-28T10:10:01;0.8;;;0.4;;
73421;SDS011;61637;47.760;-122.022;2024-02-28T10:12:02;1.5;;;0.4;;
73421;SDS011;61637;47.760;-122.022;2024-02-28T10:14:01;1.0;;;0.4;;
73421;SDS011;61637;47.760;-122.022;2024-02-28T10:16:00;1.5;;;0.4;;
73421;SDS011;61637;47.760;-122.022;2024-02-28T10:18:00;0.8;;;0.4;;
73421;SDS011;61637;47.760;-122.022;2024-02-28T10:20:01;1.0;;;0.4;;
73421;SDS011;61637;47.760;-122.022;2024-02-28T10:22:01;2.4;;;0.4;;
73421;SDS011;61637;47.760;-122.022;2024-02-28T10:24:00;1.5;;;0.4;;
73421;SDS011;61637;47.760;-122.022;2024-02-28T10:26:01;0.9;;;0.4;;
73421;SDS011;61637;47.760;-122.022;2024-02-28T10:28:01;1.3;;;0.6;;
73421;SDS011;61637;47.760;-122.022;2024-02-28T10:30:01;0.8;;;0.4;;
73421;SDS011;61637;47.760;-122.022;2024-02-28T10:32:01;0.9;;;0.4;;
73421;SDS011;61637;47.760;-122.022;2024-02-28T10:34:02;1.2;;;0.4;;
73421;SDS011;61637;47.760;-122.022;2024-02-28T10:36:02;0.8;;;0.4;;
73421;SDS011;61637;47.760;-122.022;2024-02-28T10:38:01;1.2;;;0.4;;
73421;SDS011;61637;47.760;-122.022;2024-02-28T10:40:01;0.9;;;0.4;;
73421;SDS011;61637;47.760;-122.022;2024-02-28T10:42:02;0.8;;;0.4;;
73421;SDS011;61637;47.760;-122.022;2024-02-28T10:44:01;0.9;;;0.4;;
73421;SDS011;61637;47.760;-122.022;2024-02-28T10:46:01;0.8;;;0.4;;
73421;SDS011;61637;47.760;-122.022;2024-02-28T10:48:02;2.2;;;0.4;;
73421;SDS011;61637;47.760;-122.022;2024-02-28T10:50:01;2.3;;;0.4;;
73421;SDS011;61637;47.760;-122.022;2024-02-28T10:52:03;0.8;;;0.4;;
73421;SDS011;61637;47.760;-122.022;2024-02-28T10:54:08;1.6;;;0.4;;
73421;SDS011;61637;47.760;-122.022;2024-02-28T10:56:03;1.0;;;0.4;;
73421;SDS011;61637;47.760;-122.022;2024-02-28T10:58:07;1.0;;;0.4;;
73421;SDS011;61637;47.760;-122.022;2024-02-28T11:00:02;1.2;;;0.4;;
73421;SDS011;61637;47.760;-122.022;2024-02-28T11:02:01;1.5;;;0.4;;
73421;SDS011;61637;47.760;-122.022;2024-02-28T11:04:02;0.6;;;0.3;;
73421;SDS011;61637;47.760;-122.022;2024-02-28T11:06:01;0.9;;;0.4;;
73421;SDS011;61637;47.760;-122.022;2024-02-28T11:08:00;1.6;;;0.4;;
73421;SDS011;61637;47.760;-122.022;2024-02-28T11:10:05;0.9;;;0.4;;
73421;SDS011;61637;47.760;-122.022;2024-02-28T11:12:04;0.8;;;0.4;;
73421;SDS011;61637;47.760;-122.022;2024-02-28T11:14:01;0.8;;;0.4;;
73421;SDS011;61637;47.760;-122.022;2024-02-28T11:16:08;1.1;;;0.5;;
73421;SDS011;61637;47.760;-122.022;2024-02-28T11:18:07;0.9;;;0.4;;
73421;SDS011;61637;47.760;-122.022;2024-02-28T11:22:01;0.9;;;0.4;;
73421;SDS011;61637;47.760;-122.022;2024-02-28T11:24:01;0.8;;;0.4;;
73421;SDS011;61637;47.760;-122.022;2024-02-28T11:26:01;1.2;;;0.4;;
73421;SDS011;61637;47.760;-122.022;2024-02-28T11:28:00;0.8;;;0.4;;
73421;SDS011;61637;47.760;-122.022;2024-02-28T11:30:01;0.8;;;0.4;;
73421;SDS011;61637;47.760;-122.022;2024-02-28T11:32:01;1.0;;;0.4;;
73421;SDS011;61637;47.760;-122.022;2024-02-28T11:34:00;0.9;;;0.4;;
73421;SDS011;61637;47.760;-122.022;2024-02-28T11:36:00;0.8;;;0.4;;
73421;SDS011;61637;47.760;-122.022;2024-02-28T11:38:01;1.0;;;0.5;;
73421;SDS011;61637;47.760;-122.022;2024-02-28T11:40:01;1.1;;;0.4;;
73421;SDS011;61637;47.760;-122.022;2024-02-28T11:44:00;1.3;;;0.4;;
73421;SDS011;61637;47.760;-122.022;2024-02-28T11:46:01;0.7;;;0.4;;
73421;SDS011;61637;47.760;-122.022;2024-02-28T11:48:01;0.9;;;0.4;;